sensor_id;sensor_type;location;lat;lon;timestamp;P1;durP1;ratioP1;P2;durP2;ratioP2
32964;SDS011;19317;48.226;11.686;2022-11-21T00:01:40;1.37;;;1.27;;
32964;SDS011;19317;48.226;11.686;2022-11-21T00:06:31;1.40;;;1.30;;
32964;SDS011;19317;48.226;11.686;2022-11-21T00:11:21;2.60;;;1.50;;
32964;SDS011;19317;48.226;11.686;2022-11-21T00:16:13;1.40;;;1.30;;
32964;SDS011;19317;48.226;11.686;2022-11-21T00:21:09;1.50;;;1.40;;
32964;SDS011;19317;48.226;11.686;2022-11-21T00:26:07;1.30;;;1.20;;
32964;SDS011;19317;48.226;11.686;2022-11-21T00:30:58;1.40;;;1.30;;
32964;SDS011;19317;48.226;11.686;2022-11-21T00:35:49;1.37;;;1.27;;
32964;SDS011;19317;48.226;11.686;2022-11-21T00:40:43;1.50;;;1.40;;
32964;SDS011;19317;48.226;11.686;2022-11-21T00:45:34;1.60;;;1.50;;
32964;SDS011;19317;48.226;11.686;2022-11-21T00:50:25;1.50;;;1.40;;
32964;SDS011;19317;48.226;11.686;2022-11-21T00:55:16;1.57;;;1.47;;
32964;SDS011;19317;48.226;11.686;2022-11-21T01:00:07;1.63;;;1.53;;
32964;SDS011;19317;48.226;11.686;2022-11-21T01:04:58;1.50;;;1.40;;
32964;SDS011;19317;48.226;11.686;2022-11-21T01:09:49;1.50;;;1.40;;
32964;SDS011;19317;48.226;11.686;2022-11-21T01:14:39;1.63;;;1.53;;
32964;SDS011;19317;48.226;11.686;2022-11-21T01:19:30;1.60;;;1.50;;
32964;SDS011;19317;48.226;11.686;2022-11-21T01:24:21;1.70;;;1.60;;
32964;SDS011;19317;48.226;11.686;2022-11-21T01:29:12;1.40;;;1.30;;
32964;SDS011;19317;48.226;11.686;2022-11-21T01:34:03;1.60;;;1.50;;
32964;SDS011;19317;48.226;11.686;2022-11-21T01:38:55;1.63;;;1.53;;
32964;SDS011;19317;48.226;11.686;2022-11-21T01:43:46;1.60;;;1.50;;
32964;SDS011;19317;48.226;11.686;2022-11-21T01:53:32;1.67;;;1.57;;
32964;SDS011;19317;48.226;11.686;2022-11-21T01:58:23;1.70;;;1.60;;
32964;SDS011;19317;48.226;11.686;2022-11-21T02:03:16;1.43;;;1.33;;
32964;SDS011;19317;48.226;11.686;2022-11-21T02:08:27;1.60;;;1.50;;
32964;SDS011;19317;48.226;11.686;2022-11-21T02:13:18;1.50;;;1.40;;
32964;SDS011;19317;48.226;11.686;2022-11-21T02:18:10;1.57;;;1.47;;
32964;SDS011;19317;48.226;11.686;2022-11-21T02:23:08;1.67;;;1.57;;
32964;SDS011;19317;48.226;11.686;2022-11-21T02:28:01;1.53;;;1.43;;
32964;SDS011;19317;48.226;11.686;2022-11-21T02:32:52;1.47;;;1.37;;
32964;SDS011;19317;48.226;11.686;2022-11-21T02:37:44;1.60;;;1.50;;
32964;SDS011;19317;48.226;11.686;2022-11-21T02:42:36;1.50;;;1.40;;
32964;SDS011;19317;48.226;11.686;2022-11-21T02:47:28;1.50;;;1.40;;
32964;SDS011;19317;48.226;11.686;2022-11-21T02:52:19;1.50;;;1.40;;
32964;SDS011;19317;48.226;11.686;2022-11-21T02:57:10;3.10;;;1.70;;
32964;SDS011;19317;48.226;11.686;2022-11-21T03:02:01;1.43;;;1.33;;
32964;SDS011;19317;48.226;11.686;2022-11-21T03:06:52;1.50;;;1.40;;
32964;SDS011;19317;48.226;11.686;2022-11-21T03:11:43;1.47;;;1.37;;
32964;SDS011;19317;48.226;11.686;2022-11-21T03:16:34;1.63;;;1.53;;
32964;SDS011;19317;48.226;11.686;2022-11-21T03:21:24;2.13;;;1.47;;
32964;SDS011;19317;48.226;11.686;2022-11-21T03:26:15;1.73;;;1.63;;
32964;SDS011;19317;48.226;11.686;2022-11-21T03:31:06;1.70;;;1.60;;
32964;SDS011;19317;48.226;11.686;2022-11-21T03:35:57;1.70;;;1.60;;
32964;SDS011;19317;48.226;11.686;2022-11-21T03:40:48;1.50;;;1.40;;
32964;SDS011;19317;48.226;11.686;2022-11-21T03:45:39;1.90;;;1.80;;
32964;SDS011;19317;48.226;11.686;2022-11-21T03:50:30;1.77;;;1.50;;
32964;SDS011;19317;48.226;11.686;2022-11-21T03:55:21;1.67;;;1.57;;
32964;SDS011;19317;48.226;11.686;2022-11-21T04:00:12;1.60;;;1.50;;
32964;SDS011;19317;48.226;11.686;2022-11-21T04:05:03;1.97;;;1.63;;
32964;SDS011;19317;48.226;11.686;2022-11-21T04:09:54;1.33;;;1.27;;
32964;SDS011;19317;48.226;11.686;2022-11-21T04:14:45;1.83;;;1.70;;
32964;SDS011;19317;48.226;11.686;2022-11-21T04:19:36;3.30;;;1.60;;
32964;SDS011;19317;48.226;11.686;2022-11-21T04:24:26;2.87;;;1.80;;
32964;SDS011;19317;48.226;11.686;2022-11-21T04:29:17;1.70;;;1.60;;
32964;SDS011;19317;48.226;11.686;2022-11-21T04:34:08;2.40;;;1.70;;
32964;SDS011;19317;48.226;11.686;2022-11-21T04:38:59;1.50;;;1.40;;
32964;SDS011;19317;48.226;11.686;2022-11-21T04:43:50;1.70;;;1.53;;
32964;SDS011;19317;48.226;11.686;2022-11-21T04:48:41;1.87;;;1.77;;
32964;SDS011;19317;48.226;11.686;2022-11-21T04:53:32;1.80;;;1.70;;
32964;SDS011;19317;48.226;11.686;2022-11-21T04:58:22;1.90;;;1.70;;
32964;SDS011;19317;48.226;11.686;2022-11-21T05:03:13;1.60;;;1.50;;
32964;SDS011;19317;48.226;11.686;2022-11-21T05:08:04;1.53;;;1.43;;
32964;SDS011;19317;48.226;11.686;2022-11-21T05:12:56;2.13;;;1.50;;
32964;SDS011;19317;48.226;11.686;2022-11-21T05:17:47;1.50;;;1.40;;
32964;SDS011;19317;48.226;11.686;2022-11-21T05:22:38;1.87;;;1.70;;
32964;SDS011;19317;48.226;11.686;2022-11-21T05:27:29;1.83;;;1.50;;
32964;SDS011;19317;48.226;11.686;2022-11-21T05:32:20;1.70;;;1.60;;
32964;SDS011;19317;48.226;11.686;2022-11-21T05:37:11;2.23;;;2.00;;
32964;SDS011;19317;48.226;11.686;2022-11-21T05:42:02;3.07;;;1.97;;
32964;SDS011;19317;48.226;11.686;2022-11-21T05:46:53;1.60;;;1.50;;
32964;SDS011;19317;48.226;11.686;2022-11-21T05:51:43;1.57;;;1.47;;
32964;SDS011;19317;48.226;11.686;2022-11-21T05:56:34;1.50;;;1.40;;
32964;SDS011;19317;48.226;11.686;2022-11-21T06:01:25;1.50;;;1.40;;
32964;SDS011;19317;48.226;11.686;2022-11-21T06:06:16;1.97;;;1.77;;
32964;SDS011;19317;48.226;11.686;2022-11-21T06:11:07;2.17;;;1.70;;
32964;SDS011;19317;48.226;11.686;2022-11-21T06:15:59;1.93;;;1.73;;
32964;SDS011;19317;48.226;11.686;2022-11-21T06:20:51;1.70;;;1.60;;
32964;SDS011;19317;48.226;11.686;2022-11-21T06:25:42;1.60;;;1.50;;
32964;SDS011;19317;48.226;11.686;2022-11-21T06:30:33;4.20;;;2.03;;
32964;SDS011;19317;48.226;11.686;2022-11-21T06:35:24;1.87;;;1.70;;
32964;SDS011;19317;48.226;11.686;2022-11-21T06:40:15;1.70;;;1.60;;
32964;SDS011;19317;48.226;11.686;2022-11-21T06:45:06;1.70;;;1.60;;
32964;SDS011;19317;48.226;11.686;2022-11-21T06:49:57;1.80;;;1.70;;
32964;SDS011;19317;48.226;11.686;2022-11-21T06:54:47;1.70;;;1.60;;
32964;SDS011;19317;48.226;11.686;2022-11-21T06:59:38;2.07;;;1.77;;
32964;SDS011;19317;48.226;11.686;2022-11-21T07:04:29;1.73;;;1.47;;
32964;SDS011;19317;48.226;11.686;2022-11-21T07:09:20;1.70;;;1.53;;
32964;SDS011;19317;48.226;11.686;2022-11-21T07:14:11;1.90;;;1.60;;
32964;SDS011;19317;48.226;11.686;2022-11-21T07:19:02;2.53;;;1.70;;
32964;SDS011;19317;48.226;11.686;2022-11-21T07:23:53;2.20;;;1.40;;
32964;SDS011;19317;48.226;11.686;2022-11-21T07:28:44;1.70;;;1.60;;
32964;SDS011;19317;48.226;11.686;2022-11-21T07:33:34;1.70;;;1.60;;
32964;SDS011;19317;48.226;11.686;2022-11-21T07:38:25;1.50;;;1.40;;
32964;SDS011;19317;48.226;11.686;2022-11-21T07:43:16;1.63;;;1.53;;
32964;SDS011;19317;48.226;11.686;2022-11-21T07:48:08;1.60;;;1.50;;
32964;SDS011;19317;48.226;11.686;2022-11-21T07:53:03;1.63;;;1.53;;
32964;SDS011;19317;48.226;11.686;2022-11-21T07:57:58;1.50;;;1.40;;
32964;SDS011;19317;48.226;11.686;2022-11-21T08:02:49;1.60;;;1.50;;
32964;SDS011;19317;48.226;11.686;2022-11-21T08:07:40;1.40;;;1.30;;
32964;SDS011;19317;48.226;11.686;2022-11-21T08:12:31;1.60;;;1.50;;
32964;SDS011;19317;48.226;11.686;2022-11-21T08:17:24;1.57;;;1.47;;
32964;SDS011;19317;48.226;11.686;2022-11-21T08:22:15;1.60;;;1.50;;
32964;SDS011;19317;48.226;11.686;2022-11-21T08:27:06;1.60;;;1.50;;
32964;SDS011;19317;48.226;11.686;2022-11-21T08:31:56;1.33;;;1.27;;
32964;SDS011;19317;48.226;11.686;2022-11-21T08:36:47;1.80;;;1.70;;
32964;SDS011;19317;48.226;11.686;2022-11-21T08:41:38;1.70;;;1.60;;
32964;SDS011;19317;48.226;11.686;2022-11-21T08:46:29;1.53;;;1.43;;
32964;SDS011;19317;48.226;11.686;2022-11-21T08:51:20;1.70;;;1.60;;
32964;SDS011;19317;48.226;11.686;2022-11-21T08:56:11;1.60;;;1.50;;
32964;SDS011;19317;48.226;11.686;2022-11-21T09:01:02;1.70;;;1.60;;
32964;SDS011;19317;48.226;11.686;2022-11-21T09:05:55;1.60;;;1.50;;
32964;SDS011;19317;48.226;11.686;2022-11-21T09:10:46;1.60;;;1.50;;
32964;SDS011;19317;48.226;11.686;2022-11-21T09:15:36;1.57;;;1.47;;
32964;SDS011;19317;48.226;11.686;2022-11-21T09:20:27;1.50;;;1.40;;
32964;SDS011;19317;48.226;11.686;2022-11-21T09:25:18;3.23;;;1.70;;
32964;SDS011;19317;48.226;11.686;2022-11-21T09:30:09;1.87;;;1.77;;
32964;SDS011;19317;48.226;11.686;2022-11-21T09:35:00;2.00;;;1.67;;
32964;SDS011;19317;48.226;11.686;2022-11-21T09:39:51;2.70;;;1.73;;
32964;SDS011;19317;48.226;11.686;2022-11-21T09:44:45;2.80;;;1.60;;
32964;SDS011;19317;48.226;11.686;2022-11-21T09:49:40;1.67;;;1.57;;
32964;SDS011;19317;48.226;11.686;2022-11-21T09:54:32;2.50;;;1.50;;
32964;SDS011;19317;48.226;11.686;2022-11-21T10:04:24;1.80;;;1.70;;
32964;SDS011;19317;48.226;11.686;2022-11-21T10:24:25;1.53;;;1.43;;
32964;SDS011;19317;48.226;11.686;2022-11-21T10:29:20;1.60;;;1.50;;
32964;SDS011;19317;48.226;11.686;2022-11-21T10:34:14;1.73;;;1.63;;
32964;SDS011;19317;48.226;11.686;2022-11-21T10:39:13;1.97;;;1.60;;
32964;SDS011;19317;48.226;11.686;2022-11-21T10:49:03;1.50;;;1.40;;
32964;SDS011;19317;48.226;11.686;2022-11-21T10:58:55;1.70;;;1.50;;
32964;SDS011;19317;48.226;11.686;2022-11-21T11:03:46;1.50;;;1.40;;
32964;SDS011;19317;48.226;11.686;2022-11-21T11:08:48;2.43;;;1.60;;
32964;SDS011;19317;48.226;11.686;2022-11-21T11:13:55;1.60;;;1.50;;
32964;SDS011;19317;48.226;11.686;2022-11-21T11:18:53;1.70;;;1.60;;
32964;SDS011;19317;48.226;11.686;2022-11-21T11:23:46;2.03;;;1.60;;
32964;SDS011;19317;48.226;11.686;2022-11-21T11:28:37;3.40;;;1.60;;
32964;SDS011;19317;48.226;11.686;2022-11-21T11:38:22;4.13;;;1.83;;
32964;SDS011;19317;48.226;11.686;2022-11-21T11:48:07;1.67;;;1.50;;
32964;SDS011;19317;48.226;11.686;2022-11-21T11:57:49;1.70;;;1.60;;
32964;SDS011;19317;48.226;11.686;2022-11-21T12:02:59;1.60;;;1.50;;
32964;SDS011;19317;48.226;11.686;2022-11-21T12:07:58;2.90;;;1.80;;
32964;SDS011;19317;48.226;11.686;2022-11-21T12:13:03;1.83;;;1.40;;
32964;SDS011;19317;48.226;11.686;2022-11-21T12:23:05;3.27;;;1.70;;
32964;SDS011;19317;48.226;11.686;2022-11-21T12:27:56;2.40;;;1.53;;
32964;SDS011;19317;48.226;11.686;2022-11-21T12:38:02;2.90;;;1.60;;
32964;SDS011;19317;48.226;11.686;2022-11-21T12:48:03;1.87;;;1.50;;
32964;SDS011;19317;48.226;11.686;2022-11-21T12:52:58;4.57;;;1.90;;
32964;SDS011;19317;48.226;11.686;2022-11-21T13:07:37;4.97;;;1.97;;
32964;SDS011;19317;48.226;11.686;2022-11-21T13:12:37;3.37;;;1.73;;
32964;SDS011;19317;48.226;11.686;2022-11-21T13:17:39;2.03;;;1.60;;
32964;SDS011;19317;48.226;11.686;2022-11-21T13:27:34;2.30;;;1.70;;
32964;SDS011;19317;48.226;11.686;2022-11-21T13:47:57;2.90;;;1.97;;
32964;SDS011;19317;48.226;11.686;2022-11-21T13:52:59;2.90;;;1.73;;
32964;SDS011;19317;48.226;11.686;2022-11-21T13:57:56;2.80;;;1.50;;
32964;SDS011;19317;48.226;11.686;2022-11-21T14:13:03;2.90;;;1.67;;
32964;SDS011;19317;48.226;11.686;2022-11-21T14:17:57;2.87;;;1.80;;
32964;SDS011;19317;48.226;11.686;2022-11-21T14:22:56;1.90;;;1.67;;
32964;SDS011;19317;48.226;11.686;2022-11-21T14:27:47;2.30;;;1.70;;
32964;SDS011;19317;48.226;11.686;2022-11-21T14:32:39;1.80;;;1.70;;
32964;SDS011;19317;48.226;11.686;2022-11-21T14:37:30;2.60;;;1.80;;
32964;SDS011;19317;48.226;11.686;2022-11-21T14:42:21;2.83;;;2.43;;
32964;SDS011;19317;48.226;11.686;2022-11-21T14:47:16;2.80;;;1.63;;
32964;SDS011;19317;48.226;11.686;2022-11-21T14:57:02;2.17;;;1.60;;
32964;SDS011;19317;48.226;11.686;2022-11-21T15:01:57;2.00;;;1.80;;
32964;SDS011;19317;48.226;11.686;2022-11-21T15:06:48;3.00;;;1.60;;
32964;SDS011;19317;48.226;11.686;2022-11-21T15:16:38;1.70;;;1.60;;
32964;SDS011;19317;48.226;11.686;2022-11-21T15:21:29;3.10;;;1.70;;
32964;SDS011;19317;48.226;11.686;2022-11-21T15:26:27;2.77;;;2.03;;
32964;SDS011;19317;48.226;11.686;2022-11-21T15:31:19;2.90;;;1.57;;
32964;SDS011;19317;48.226;11.686;2022-11-21T15:36:11;1.87;;;1.57;;
32964;SDS011;19317;48.226;11.686;2022-11-21T15:46:02;2.60;;;1.60;;
32964;SDS011;19317;48.226;11.686;2022-11-21T15:50:54;2.20;;;1.73;;
32964;SDS011;19317;48.226;11.686;2022-11-21T15:55:45;2.73;;;1.80;;
32964;SDS011;19317;48.226;11.686;2022-11-21T16:00:36;1.80;;;1.70;;
32964;SDS011;19317;48.226;11.686;2022-11-21T16:05:27;1.70;;;1.60;;
32964;SDS011;19317;48.226;11.686;2022-11-21T16:10:18;2.10;;;1.70;;
32964;SDS011;19317;48.226;11.686;2022-11-21T16:15:08;3.10;;;1.70;;
32964;SDS011;19317;48.226;11.686;2022-11-21T16:19:59;2.23;;;1.70;;
32964;SDS011;19317;48.226;11.686;2022-11-21T16:24:50;2.73;;;1.80;;
32964;SDS011;19317;48.226;11.686;2022-11-21T16:29:41;2.03;;;1.90;;
32964;SDS011;19317;48.226;11.686;2022-11-21T16:34:32;2.30;;;1.90;;
32964;SDS011;19317;48.226;11.686;2022-11-21T16:39:23;2.70;;;1.70;;
32964;SDS011;19317;48.226;11.686;2022-11-21T16:44:15;2.17;;;1.80;;
32964;SDS011;19317;48.226;11.686;2022-11-21T16:49:05;2.23;;;1.90;;
32964;SDS011;19317;48.226;11.686;2022-11-21T16:53:57;2.30;;;2.10;;
32964;SDS011;19317;48.226;11.686;2022-11-21T16:58:48;2.83;;;1.90;;
32964;SDS011;19317;48.226;11.686;2022-11-21T17:03:39;3.10;;;2.17;;
32964;SDS011;19317;48.226;11.686;2022-11-21T17:08:31;2.07;;;1.87;;
32964;SDS011;19317;48.226;11.686;2022-11-21T17:13:23;4.20;;;2.13;;
32964;SDS011;19317;48.226;11.686;2022-11-21T17:18:14;2.20;;;2.00;;
32964;SDS011;19317;48.226;11.686;2022-11-21T17:23:05;2.27;;;2.07;;
32964;SDS011;19317;48.226;11.686;2022-11-21T17:27:55;2.43;;;2.23;;
32964;SDS011;19317;48.226;11.686;2022-11-21T17:32:46;2.47;;;2.00;;
32964;SDS011;19317;48.226;11.686;2022-11-21T17:37:37;3.00;;;2.60;;
32964;SDS011;19317;48.226;11.686;2022-11-21T17:42:28;3.80;;;2.87;;
32964;SDS011;19317;48.226;11.686;2022-11-21T17:47:19;3.30;;;2.70;;
32964;SDS011;19317;48.226;11.686;2022-11-21T17:52:10;2.63;;;2.33;;
32964;SDS011;19317;48.226;11.686;2022-11-21T17:57:01;2.63;;;2.33;;
32964;SDS011;19317;48.226;11.686;2022-11-21T18:01:52;2.93;;;2.50;;
32964;SDS011;19317;48.226;11.686;2022-11-21T18:06:43;2.60;;;2.37;;
32964;SDS011;19317;48.226;11.686;2022-11-21T18:11:34;2.60;;;2.40;;
32964;SDS011;19317;48.226;11.686;2022-11-21T18:16:26;2.83;;;2.37;;
32964;SDS011;19317;48.226;11.686;2022-11-21T18:21:20;2.57;;;2.23;;
32964;SDS011;19317;48.226;11.686;2022-11-21T18:26:16;2.40;;;2.20;;
32964;SDS011;19317;48.226;11.686;2022-11-21T18:36:01;3.20;;;2.00;;
32964;SDS011;19317;48.226;11.686;2022-11-21T18:40:52;2.93;;;2.50;;
32964;SDS011;19317;48.226;11.686;2022-11-21T18:45:43;2.63;;;2.33;;
32964;SDS011;19317;48.226;11.686;2022-11-21T18:50:34;2.40;;;2.20;;
32964;SDS011;19317;48.226;11.686;2022-11-21T18:55:24;2.50;;;2.30;;
32964;SDS011;19317;48.226;11.686;2022-11-21T19:00:16;3.23;;;2.20;;
32964;SDS011;19317;48.226;11.686;2022-11-21T19:05:07;3.50;;;2.63;;
32964;SDS011;19317;48.226;11.686;2022-11-21T19:09:57;3.07;;;2.60;;
32964;SDS011;19317;48.226;11.686;2022-11-21T19:14:48;2.90;;;2.70;;
32964;SDS011;19317;48.226;11.686;2022-11-21T19:19:39;3.37;;;2.60;;
32964;SDS011;19317;48.226;11.686;2022-11-21T19:24:30;3.27;;;2.80;;
32964;SDS011;19317;48.226;11.686;2022-11-21T19:29:21;3.00;;;2.63;;
32964;SDS011;19317;48.226;11.686;2022-11-21T19:34:12;2.53;;;2.33;;
32964;SDS011;19317;48.226;11.686;2022-11-21T19:39:03;4.20;;;2.30;;
32964;SDS011;19317;48.226;11.686;2022-11-21T19:43:56;3.40;;;2.10;;
32964;SDS011;19317;48.226;11.686;2022-11-21T19:48:51;2.40;;;2.20;;
32964;SDS011;19317;48.226;11.686;2022-11-21T19:53:42;2.60;;;2.30;;
32964;SDS011;19317;48.226;11.686;2022-11-21T19:58:33;2.83;;;2.47;;
32964;SDS011;19317;48.226;11.686;2022-11-21T20:03:24;2.50;;;2.30;;
32964;SDS011;19317;48.226;11.686;2022-11-21T20:08:15;3.20;;;2.30;;
32964;SDS011;19317;48.226;11.686;2022-11-21T20:13:06;2.40;;;2.20;;
32964;SDS011;19317;48.226;11.686;2022-11-21T20:17:57;4.87;;;2.40;;
32964;SDS011;19317;48.226;11.686;2022-11-21T20:22:48;2.70;;;2.10;;
32964;SDS011;19317;48.226;11.686;2022-11-21T20:27:39;2.10;;;1.80;;
32964;SDS011;19317;48.226;11.686;2022-11-21T20:32:30;1.97;;;1.77;;
32964;SDS011;19317;48.226;11.686;2022-11-21T20:37:21;1.90;;;1.70;;
32964;SDS011;19317;48.226;11.686;2022-11-21T20:42:12;2.10;;;1.90;;
32964;SDS011;19317;48.226;11.686;2022-11-21T20:47:03;1.93;;;1.73;;
32964;SDS011;19317;48.226;11.686;2022-11-21T20:51:54;2.83;;;2.20;;
32964;SDS011;19317;48.226;11.686;2022-11-21T20:56:45;2.20;;;1.93;;
32964;SDS011;19317;48.226;11.686;2022-11-21T21:01:36;2.37;;;2.00;;
32964;SDS011;19317;48.226;11.686;2022-11-21T21:06:26;1.80;;;1.70;;
32964;SDS011;19317;48.226;11.686;2022-11-21T21:11:18;2.20;;;2.00;;
32964;SDS011;19317;48.226;11.686;2022-11-21T21:16:10;6.93;;;4.37;;
32964;SDS011;19317;48.226;11.686;2022-11-21T21:21:05;3.00;;;2.23;;
32964;SDS011;19317;48.226;11.686;2022-11-21T21:25:57;1.70;;;1.60;;
32964;SDS011;19317;48.226;11.686;2022-11-21T21:30:47;1.80;;;1.70;;
32964;SDS011;19317;48.226;11.686;2022-11-21T21:35:38;2.77;;;2.00;;
32964;SDS011;19317;48.226;11.686;2022-11-21T21:40:29;2.90;;;2.13;;
32964;SDS011;19317;48.226;11.686;2022-11-21T21:45:20;2.10;;;1.90;;
32964;SDS011;19317;48.226;11.686;2022-11-21T21:50:11;2.30;;;2.10;;
32964;SDS011;19317;48.226;11.686;2022-11-21T21:55:02;2.50;;;2.10;;
32964;SDS011;19317;48.226;11.686;2022-11-21T21:59:53;2.10;;;1.90;;
32964;SDS011;19317;48.226;11.686;2022-11-21T22:04:44;1.93;;;1.83;;
32964;SDS011;19317;48.226;11.686;2022-11-21T22:09:35;2.00;;;1.90;;
32964;SDS011;19317;48.226;11.686;2022-11-21T22:14:25;1.80;;;1.70;;
32964;SDS011;19317;48.226;11.686;2022-11-21T22:19:16;2.07;;;1.97;;
32964;SDS011;19317;48.226;11.686;2022-11-21T22:24:11;1.83;;;1.73;;
32964;SDS011;19317;48.226;11.686;2022-11-21T22:29:02;3.40;;;1.80;;
32964;SDS011;19317;48.226;11.686;2022-11-21T22:33:53;2.10;;;1.90;;
32964;SDS011;19317;48.226;11.686;2022-11-21T22:38:44;1.97;;;1.87;;
32964;SDS011;19317;48.226;11.686;2022-11-21T22:43:35;2.70;;;2.00;;
32964;SDS011;19317;48.226;11.686;2022-11-21T22:48:26;2.30;;;1.87;;
32964;SDS011;19317;48.226;11.686;2022-11-21T22:53:18;2.10;;;1.90;;
32964;SDS011;19317;48.226;11.686;2022-11-21T22:58:08;2.17;;;2.00;;
32964;SDS011;19317;48.226;11.686;2022-11-21T23:02:59;2.20;;;1.97;;
32964;SDS011;19317;48.226;11.686;2022-11-21T23:07:50;2.10;;;1.90;;
32964;SDS011;19317;48.226;11.686;2022-11-21T23:12:41;3.03;;;2.30;;
32964;SDS011;19317;48.226;11.686;2022-11-21T23:17:32;2.00;;;1.90;;
32964;SDS011;19317;48.226;11.686;2022-11-21T23:22:23;2.20;;;2.00;;
32964;SDS011;19317;48.226;11.686;2022-11-21T23:27:14;1.97;;;1.80;;
32964;SDS011;19317;48.226;11.686;2022-11-21T23:32:05;2.20;;;2.00;;
32964;SDS011;19317;48.226;11.686;2022-11-21T23:36:55;2.10;;;1.90;;
32964;SDS011;19317;48.226;11.686;2022-11-21T23:41:46;2.30;;;2.10;;
32964;SDS011;19317;48.226;11.686;2022-11-21T23:46:37;2.63;;;2.10;;
32964;SDS011;19317;48.226;11.686;2022-11-21T23:51:28;2.43;;;2.23;;
32964;SDS011;19317;48.226;11.686;2022-11-21T23:56:19;2.13;;;2.00;;
